Time;durP1;ratioP1;P1;durP2;ratioP2;P2;SDS_P1;SDS_P2;PMS_P1;PMS_P2;Temp;Humidity;BMP_temperature;BMP_pressure;BME280_temperature;BME280_humidity;BME280_pressure;Samples;Min_cycle;Max_cycle;Signal;HPM_P1;HPM_P2
2021/09/02 00:00:03;;;;;;;;;;;;;;;12.08;74.58;97349.47;5055014;28;19959;-78
2021/09/02 00:02:30;;;;;;;;;;;;;;;12.07;74.79;97347.03;5053989;28;19959;-78
2021/09/02 00:04:56;;;;;;;;;;;;;;;12.02;74.84;97345.00;5055550;28;19999;-78
2021/09/02 00:07:21;;;;;;;;;;;;;;;12.01;74.98;97347.84;5054811;28;19965;-78
2021/09/02 00:09:47;;;;;;;;;;;;;;;11.98;74.82;97344.59;5055147;28;19950;-78
2021/09/02 00:12:13;;;;;;;;;;;;;;;11.98;74.79;97335.91;5054770;28;19952;-78
2021/09/02 00:14:39;;;;;;;;;;;;;;;11.97;75.04;97342.22;5054807;28;19996;-78
2021/09/02 00:17:05;;;;;;;;;;;;;;;11.94;75.19;97327.63;5054901;28;19964;-78
2021/09/02 00:19:31;;;;;;;;;;;;;;;11.93;74.87;97331.28;5054773;28;20477;-78
2021/09/02 00:21:57;;;;;;;;;;;;;;;11.93;75.17;97328.66;5054455;28;19975;-78
2021/09/02 00:24:23;;;;;;;;;;;;;;;11.92;75.30;97334.09;5055018;28;19978;-78
2021/09/02 00:26:49;;;;;;;;;;;;;;;11.90;75.19;97330.88;5054367;28;20051;-78
2021/09/02 00:29:15;;;;;;;;;;;;;;;11.87;75.22;97320.75;5054572;28;19947;-78
2021/09/02 00:31:41;;;;;;;;;;;;;;;11.87;75.24;97326.81;5054932;28;20045;-78
2021/09/02 00:34:07;;;;;;;;;;;;;;;11.86;75.12;97327.00;5054634;28;19954;-78
2021/09/02 00:36:33;;;;;;;;;;;;;;;11.85;75.50;97328.84;5054567;28;19954;-78
2021/09/02 00:38:59;;;;;;;;;;;;;;;11.85;75.89;97320.94;5054612;28;20430;-78
2021/09/02 00:41:25;;;;;;;;;;;;;;;11.84;75.59;97319.31;5053954;28;19953;-78
2021/09/02 00:43:51;;;;;;;;;;;;;;;11.84;75.35;97314.06;5054122;28;19959;-78
2021/09/02 00:46:17;;;;;;;;;;;;;;;11.83;75.21;97320.34;5053420;28;19954;-78
2021/09/02 00:48:44;;;;;;;;;;;;;;;11.82;75.49;97315.28;5054440;28;19947;-78
2021/09/02 00:51:10;;;;;;;;;;;;;;;11.81;75.45;97316.31;5054128;28;19954;-78
2021/09/02 00:53:36;;;;;;;;;;;;;;;11.79;75.37;97316.50;5054289;28;19965;-78
2021/09/02 00:56:02;;;;;;;;;;;;;;;11.76;75.22;97316.94;5054155;28;19961;-78
2021/09/02 00:58:28;;;;;;;;;;;;;;;11.74;75.34;97317.13;5053875;28;20049;-78
2021/09/02 01:00:54;;;;;;;;;;;;;;;11.72;75.33;97318.34;5052935;28;20344;-78
2021/09/02 01:03:20;;;;;;;;;;;;;;;11.68;75.25;97317.94;5054244;28;20151;-78
2021/09/02 01:05:51;;;;;;;;;;;;;;;11.65;75.46;97314.88;5053091;28;19954;-79
2021/09/02 01:08:17;;;;;;;;;;;;;;;11.60;75.66;97309.44;5052958;28;19968;-78
2021/09/02 01:10:45;;;;;;;;;;;;;;;11.56;75.86;97315.09;5053888;28;19952;-78
2021/09/02 01:13:11;;;;;;;;;;;;;;;11.53;76.07;97304.19;5053885;28;19952;-78
2021/09/02 01:15:37;;;;;;;;;;;;;;;11.49;75.88;97319.56;5053742;28;19957;-78
2021/09/02 01:18:03;;;;;;;;;;;;;;;11.47;75.93;97318.16;5052616;28;20329;-78
2021/09/02 01:20:30;;;;;;;;;;;;;;;11.43;76.02;97312.47;5053763;28;19953;-78
2021/09/02 01:22:57;;;;;;;;;;;;;;;11.38;75.82;97310.47;5053597;28;20438;-78
2021/09/02 01:25:24;;;;;;;;;;;;;;;11.36;76.17;97309.06;5052519;28;19953;-78
2021/09/02 01:27:52;;;;;;;;;;;;;;;11.33;76.62;97309.44;5053753;28;19969;-78
2021/09/02 01:30:19;;;;;;;;;;;;;;;11.29;76.26;97302.97;5054102;28;20422;-78
2021/09/02 01:32:46;;;;;;;;;;;;;;;11.28;75.94;97304.78;5052990;28;19963;-78
2021/09/02 01:35:13;;;;;;;;;;;;;;;11.25;76.66;97299.13;5051644;28;19970;-78
2021/09/02 01:37:40;;;;;;;;;;;;;;;11.22;76.53;97294.28;5053452;28;19953;-78
2021/09/02 01:40:08;;;;;;;;;;;;;;;11.20;76.45;97288.44;5053262;28;19961;-78
2021/09/02 01:42:34;;;;;;;;;;;;;;;11.18;76.51;97297.31;5053727;28;20340;-78
2021/09/02 01:45:00;;;;;;;;;;;;;;;11.17;76.65;97298.31;5052871;28;20031;-79
2021/09/02 01:47:27;;;;;;;;;;;;;;;11.14;76.79;97292.66;5053508;28;19962;-78
2021/09/02 01:49:54;;;;;;;;;;;;;;;11.10;76.67;97296.69;5053392;28;19952;-78
2021/09/02 01:52:20;;;;;;;;;;;;;;;11.07;77.06;97300.53;5053113;28;19955;-78
2021/09/02 01:54:46;;;;;;;;;;;;;;;11.05;76.68;97299.91;5053394;28;19963;-79
2021/09/02 01:57:13;;;;;;;;;;;;;;;11.06;76.83;97304.16;5053731;28;19958;-78
2021/09/02 01:59:39;;;;;;;;;;;;;;;11.04;76.95;97298.28;5053325;28;19953;-78
2021/09/02 02:02:05;;;;;;;;;;;;;;;11.02;77.08;97296.88;5053422;28;20010;-78
2021/09/02 02:04:31;;;;;;;;;;;;;;;11.00;76.99;97297.06;5053272;28;19968;-78
2021/09/02 02:06:57;;;;;;;;;;;;;;;10.96;76.98;97290.59;5053220;28;20442;-78
2021/09/02 02:09:23;;;;;;;;;;;;;;;10.92;77.28;97292.03;5053200;28;19958;-78
2021/09/02 02:11:49;;;;;;;;;;;;;;;10.87;77.32;97297.84;5053236;28;20444;-78
2021/09/02 02:14:15;;;;;;;;;;;;;;;10.83;77.17;97295.81;5053135;28;19965;-78
2021/09/02 02:16:41;;;;;;;;;;;;;;;10.80;77.55;97293.63;5053018;28;20151;-78
2021/09/02 02:19:06;;;;;;;;;;;;;;;10.75;77.06;97294.19;5053546;28;19989;-78
2021/09/02 02:21:32;;;;;;;;;;;;;;;10.67;77.63;97295.19;5052808;28;19998;-78
2021/09/02 02:23:58;;;;;;;;;;;;;;;10.63;77.47;97291.34;5052916;28;20016;-78
2021/09/02 02:26:24;;;;;;;;;;;;;;;10.62;77.55;97289.72;5052944;28;20004;-79
2021/09/02 02:28:50;;;;;;;;;;;;;;;10.61;77.43;97292.56;5053151;28;19963;-78
2021/09/02 02:31:16;;;;;;;;;;;;;;;10.61;77.51;97289.94;5052872;28;20400;-78
2021/09/02 02:33:42;;;;;;;;;;;;;;;10.61;77.20;97290.72;5053224;28;19958;-78
2021/09/02 02:36:08;;;;;;;;;;;;;;;10.59;77.51;97286.69;5052908;28;20003;-79
2021/09/02 02:38:33;;;;;;;;;;;;;;;10.55;77.89;97287.06;5053051;28;20389;-78
2021/09/02 02:40:59;;;;;;;;;;;;;;;10.53;77.61;97285.66;5051929;28;20037;-78
2021/09/02 02:43:25;;;;;;;;;;;;;;;10.51;77.63;97288.47;5051839;28;20002;-78
2021/09/02 02:45:52;;;;;;;;;;;;;;;10.50;77.58;97286.06;5055602;28;19962;-78
2021/09/02 02:48:18;;;;;;;;;;;;;;;10.49;77.23;97285.22;5056420;28;20447;-78
2021/09/02 02:50:44;;;;;;;;;;;;;;;10.46;77.38;97282.22;5056531;28;20016;-78
2021/09/02 02:53:10;;;;;;;;;;;;;;;10.44;77.96;97289.47;5056614;28;20012;-78
2021/09/02 02:55:36;;;;;;;;;;;;;;;10.42;77.82;97286.22;5056532;28;19958;-78
2021/09/02 02:58:02;;;;;;;;;;;;;;;10.41;77.63;97289.84;5056570;28;21168;-78
2021/09/02 03:00:28;;;;;;;;;;;;;;;10.38;77.91;97292.88;5056611;28;20042;-78
2021/09/02 03:02:53;;;;;;;;;;;;;;;10.34;77.79;97290.63;5056312;28;20032;-79
2021/09/02 03:05:19;;;;;;;;;;;;;;;10.32;77.99;97295.25;5056321;28;20410;-78
2021/09/02 03:07:45;;;;;;;;;;;;;;;10.30;77.91;97297.25;5056415;28;20344;-78
2021/09/02 03:10:11;;;;;;;;;;;;;;;10.29;77.69;97292.16;5038926;28;20407;-78
2021/09/02 03:12:37;;;;;;;;;;;;;;;10.28;77.35;97296.63;5056072;28;19955;-78
2021/09/02 03:15:04;;;;;;;;;;;;;;;10.26;77.96;97292.56;5056221;28;19961;-78
2021/09/02 03:17:30;;;;;;;;;;;;;;;10.22;77.62;97280.84;5055852;28;20408;-78
2021/09/02 03:19:56;;;;;;;;;;;;;;;10.22;77.85;97281.66;5055790;28;19994;-78
2021/09/02 03:22:22;;;;;;;;;;;;;;;10.19;77.70;97289.13;5055610;28;20433;-78
2021/09/02 03:24:48;;;;;;;;;;;;;;;10.17;77.88;97286.69;5055975;28;19956;-78
2021/09/02 03:27:14;;;;;;;;;;;;;;;10.14;77.97;97293.13;5055968;28;19970;-79
2021/09/02 03:29:39;;;;;;;;;;;;;;;10.12;77.91;97291.69;5055696;28;19960;-78
2021/09/02 03:32:06;;;;;;;;;;;;;;;10.10;77.42;97283.22;5055802;28;19991;-78
2021/09/02 03:34:31;;;;;;;;;;;;;;;10.08;77.37;97288.66;5055648;28;19974;-79
2021/09/02 03:36:57;;;;;;;;;;;;;;;10.06;77.89;97282.81;5055710;28;19952;-78
2021/09/02 03:39:23;;;;;;;;;;;;;;;10.06;77.96;97282.81;5056050;28;19955;-79
2021/09/02 03:41:49;;;;;;;;;;;;;;;10.04;77.45;97281.38;5055185;28;20012;-79
2021/09/02 03:44:15;;;;;;;;;;;;;;;10.00;77.60;97286.19;5055820;28;20037;-78
2021/09/02 03:46:41;;;;;;;;;;;;;;;9.98;77.75;97288.19;5055651;28;20035;-79
2021/09/02 03:49:07;;;;;;;;;;;;;;;9.94;77.66;97285.16;5055393;28;19957;-79
2021/09/02 03:51:33;;;;;;;;;;;;;;;9.93;77.93;97290.56;5055353;28;19952;-79
2021/09/02 03:53:59;;;;;;;;;;;;;;;9.90;77.63;97291.78;5055347;28;19959;-79
2021/09/02 03:56:25;;;;;;;;;;;;;;;9.89;77.65;97281.47;5055067;28;19962;-79
2021/09/02 03:58:51;;;;;;;;;;;;;;;9.84;78.16;97282.06;5055540;28;19979;-79
2021/09/02 04:01:18;;;;;;;;;;;;;;;9.82;78.29;97280.66;5055054;28;19969;-78
2021/09/02 04:03:44;;;;;;;;;;;;;;;9.78;78.20;97282.81;5054952;28;20405;-79
2021/09/02 04:06:10;;;;;;;;;;;;;;;9.75;78.27;97284.03;5055126;28;19971;-78
2021/09/02 04:08:36;;;;;;;;;;;;;;;9.73;78.40;97282.59;5055141;28;19973;-79
2021/09/02 04:11:02;;;;;;;;;;;;;;;9.70;78.46;97285.59;5055166;28;19952;-78
2021/09/02 04:13:28;;;;;;;;;;;;;;;9.72;79.04;97284.44;5054467;28;19971;-79
2021/09/02 04:15:54;;;;;;;;;;;;;;;9.74;79.12;97284.22;5054286;28;19949;-79
2021/09/02 04:18:19;;;;;;;;;;;;;;;9.78;79.93;97282.03;5054743;28;20310;-79
2021/09/02 04:20:45;;;;;;;;;;;;;;;9.82;80.93;97291.94;5054781;28;19954;-79
2021/09/02 04:23:11;;;;;;;;;;;;;;;9.82;80.57;97298.97;5054968;28;19982;-78
2021/09/02 04:25:37;;;;;;;;;;;;;;;9.80;80.12;97301.78;5055021;28;20000;-79
2021/09/02 04:28:04;;;;;;;;;;;;;;;9.79;80.41;97294.13;5054403;28;20023;-79
2021/09/02 04:30:30;;;;;;;;;;;;;;;9.76;79.96;97308.41;5054690;28;19955;-79
2021/09/02 04:32:56;;;;;;;;;;;;;;;9.75;79.68;97309.41;5053575;28;19965;-79
2021/09/02 04:35:22;;;;;;;;;;;;;;;9.70;79.34;97307.38;5054732;28;20420;-78
2021/09/02 04:37:48;;;;;;;;;;;;;;;9.67;79.25;97307.75;5054410;28;19944;-79
2021/09/02 04:40:15;;;;;;;;;;;;;;;9.64;78.97;97304.69;5054830;28;19958;-79
2021/09/02 04:42:41;;;;;;;;;;;;;;;9.62;78.77;97307.53;5054173;28;19959;-78
2021/09/02 04:45:08;;;;;;;;;;;;;;;9.62;79.03;97301.47;5054433;28;19951;-79
2021/09/02 04:47:34;;;;;;;;;;;;;;;9.60;78.78;97309.53;5053949;28;20433;-79
2021/09/02 04:50:00;;;;;;;;;;;;;;;9.59;78.75;97301.84;5054349;28;19959;-79
2021/09/02 04:52:25;;;;;;;;;;;;;;;9.59;78.83;97307.06;5054193;28;19947;-79
2021/09/02 04:54:52;;;;;;;;;;;;;;;9.59;79.09;97307.06;5054549;28;19966;-79
2021/09/02 04:57:21;;;;;;;;;;;;;;;9.57;79.21;97304.66;5054047;28;19979;-79
2021/09/02 04:59:47;;;;;;;;;;;;;;;9.56;79.60;97305.66;5054175;28;20360;-79
2021/09/02 05:02:13;;;;;;;;;;;;;;;9.51;79.61;97306.22;5053779;28;19960;-79
2021/09/02 05:04:39;;;;;;;;;;;;;;;9.49;80.06;97318.69;5054201;28;19959;-79
2021/09/02 05:07:05;;;;;;;;;;;;;;;9.47;79.66;97325.94;5053585;28;20432;-79
2021/09/02 05:09:31;;;;;;;;;;;;;;;9.45;79.79;97322.69;5053336;28;20439;-79
2021/09/02 05:11:57;;;;;;;;;;;;;;;9.44;80.34;97321.06;5054092;28;19949;-79
2021/09/02 05:14:23;;;;;;;;;;;;;;;9.41;79.71;97321.44;5053638;28;20313;-79
2021/09/02 05:16:48;;;;;;;;;;;;;;;9.43;79.96;97329.94;5053663;28;19988;-79
2021/09/02 05:19:14;;;;;;;;;;;;;;;9.64;79.75;97323.84;5053743;28;19963;-79
2021/09/02 05:21:40;;;;;;;;;;;;;;;10.10;78.81;97323.34;5053411;28;20066;-79
2021/09/02 05:24:07;;;;;;;;;;;;;;;10.64;77.75;97313.13;5054045;28;20013;-79
2021/09/02 05:26:33;;;;;;;;;;;;;;;11.20;76.18;97305.00;5053985;28;19961;-79
2021/09/02 05:28:58;;;;;;;;;;;;;;;11.74;74.54;97309.25;5053539;28;19968;-79
2021/09/02 05:31:26;;;;;;;;;;;;;;;12.27;73.08;97310.97;5053480;28;19958;-79
2021/09/02 05:33:52;;;;;;;;;;;;;;;12.77;71.98;97300.66;5053064;28;19962;-79
2021/09/02 05:36:18;;;;;;;;;;;;;;;13.22;70.74;97299.78;5053725;28;19949;-79
2021/09/02 05:38:44;;;;;;;;;;;;;;;13.64;69.42;97284.28;5053601;28;20406;-79
2021/09/02 05:41:10;;;;;;;;;;;;;;;14.05;68.69;97288.16;5053313;28;19964;-79
2021/09/02 05:43:36;;;;;;;;;;;;;;;14.43;67.68;97286.31;5053285;28;19962;-79
2021/09/02 05:46:02;;;;;;;;;;;;;;;14.77;66.40;97287.53;5053938;28;19948;-79
2021/09/02 05:48:28;;;;;;;;;;;;;;;15.11;65.94;97280.75;5052245;28;19974;-79
2021/09/02 05:50:54;;;;;;;;;;;;;;;15.45;65.30;97278.38;5052449;28;20430;-79
2021/09/02 05:53:21;;;;;;;;;;;;;;;15.71;63.69;97273.72;5053728;28;20017;-80
2021/09/02 05:55:48;;;;;;;;;;;;;;;15.81;63.70;97269.47;5053393;28;19979;-80
2021/09/02 05:58:14;;;;;;;;;;;;;;;16.07;63.91;97274.53;5053097;28;19969;-80
2021/09/02 06:00:40;;;;;;;;;;;;;;;16.34;63.17;97272.97;5053569;28;19996;-80
2021/09/02 06:03:06;;;;;;;;;;;;;;;16.59;62.88;97270.00;5053432;28;20403;-80
2021/09/02 06:05:32;;;;;;;;;;;;;;;16.86;62.43;97272.09;5053417;28;19981;-79
2021/09/02 06:07:58;;;;;;;;;;;;;;;17.10;61.63;97267.50;5053122;28;19984;-80
2021/09/02 06:10:25;;;;;;;;;;;;;;;17.30;60.70;97264.38;5053246;28;19977;-80
2021/09/02 06:12:53;;;;;;;;;;;;;;;17.32;60.35;97261.47;5053056;28;20202;-80
2021/09/02 06:15:19;;;;;;;;;;;;;;;16.99;59.01;97255.13;5038722;28;19973;-80
2021/09/02 06:17:44;;;;;;;;;;;;;;;16.72;59.71;97257.53;5052688;28;20072;-79
2021/09/02 06:20:11;;;;;;;;;;;;;;;16.61;60.21;97267.13;5055308;28;19979;-80
2021/09/02 06:22:36;;;;;;;;;;;;;;;16.67;60.84;97276.75;5056814;28;20446;-79
2021/09/02 06:25:03;;;;;;;;;;;;;;;16.76;60.65;97283.31;5056971;28;19979;-80
2021/09/02 06:27:28;;;;;;;;;;;;;;;16.83;60.28;97276.03;5056918;28;19980;-79
2021/09/02 06:29:54;;;;;;;;;;;;;;;16.94;60.14;97284.16;5057058;28;20060;-79
2021/09/02 06:32:20;;;;;;;;;;;;;;;16.89;58.67;97269.00;5056880;28;20345;-79
2021/09/02 06:34:46;;;;;;;;;;;;;;;16.89;60.36;97278.78;5055871;28;19995;-79
2021/09/02 06:37:12;;;;;;;;;;;;;;;16.78;59.92;97275.91;5056243;28;19977;-79
2021/09/02 06:39:38;;;;;;;;;;;;;;;16.77;61.18;97286.75;5056874;28;19968;-79
2021/09/02 06:42:04;;;;;;;;;;;;;;;16.81;60.80;97287.91;5056099;28;20439;-79
2021/09/02 06:44:30;;;;;;;;;;;;;;;16.98;60.66;97290.59;5056703;28;19988;-79
2021/09/02 06:46:56;;;;;;;;;;;;;;;17.14;60.04;97281.88;5056799;28;19976;-79
2021/09/02 06:49:22;;;;;;;;;;;;;;;17.32;61.03;97290.66;5056509;28;20436;-79
2021/09/02 06:51:48;;;;;;;;;;;;;;;17.50;59.74;97287.78;5056559;28;20019;-79
2021/09/02 06:54:14;;;;;;;;;;;;;;;17.62;60.21;97283.19;5056481;28;19977;-79
2021/09/02 06:56:40;;;;;;;;;;;;;;;17.77;59.80;97277.31;5056207;28;19969;-79
2021/09/02 06:59:06;;;;;;;;;;;;;;;17.81;59.58;97269.66;5056423;28;20001;-79
2021/09/02 07:01:32;;;;;;;;;;;;;;;17.81;59.57;97280.28;5056514;28;19977;-79
2021/09/02 07:03:58;;;;;;;;;;;;;;;17.76;59.92;97282.84;5056275;28;19970;-79
2021/09/02 07:06:24;;;;;;;;;;;;;;;17.84;59.21;97279.81;5056263;28;20423;-79
2021/09/02 07:08:50;;;;;;;;;;;;;;;17.84;59.80;97277.94;5055465;28;19987;-79
2021/09/02 07:11:15;;;;;;;;;;;;;;;17.79;59.48;97277.06;5055964;28;19973;-79
2021/09/02 07:13:41;;;;;;;;;;;;;;;17.61;59.82;97288.72;5056258;28;20489;-79
2021/09/02 07:16:07;;;;;;;;;;;;;;;17.40;60.03;97295.56;5056046;28;19995;-78
2021/09/02 07:18:33;;;;;;;;;;;;;;;17.15;60.93;97302.03;5056395;28;20494;-78
2021/09/02 07:20:59;;;;;;;;;;;;;;;17.26;61.34;97305.69;5055422;28;19976;-78
2021/09/02 07:23:25;;;;;;;;;;;;;;;17.36;61.30;97302.38;5055865;28;19997;-78
2021/09/02 07:25:51;;;;;;;;;;;;;;;17.46;61.04;97294.59;5055821;28;19974;-79
2021/09/02 07:28:17;;;;;;;;;;;;;;;17.62;61.42;97300.97;5055814;28;19985;-79
2021/09/02 07:30:43;;;;;;;;;;;;;;;17.73;59.93;97289.44;5055087;28;19981;-78
2021/09/02 07:33:11;;;;;;;;;;;;;;;17.76;60.61;97294.25;5054698;28;19973;-78
2021/09/02 07:35:37;;;;;;;;;;;;;;;17.81;60.32;97297.00;5055682;28;19973;-76
2021/09/02 07:38:03;;;;;;;;;;;;;;;17.90;60.52;97299.28;5055503;28;19974;-77
2021/09/02 07:40:29;;;;;;;;;;;;;;;17.99;60.35;97305.75;5055884;28;20048;-78
2021/09/02 07:42:55;;;;;;;;;;;;;;;18.13;60.70;97299.06;5055410;28;19974;-77
2021/09/02 07:45:21;;;;;;;;;;;;;;;18.35;59.97;97306.22;5055536;28;19981;-78
2021/09/02 07:47:47;;;;;;;;;;;;;;;18.44;59.61;97299.47;5055716;28;20434;-78
2021/09/02 07:50:13;;;;;;;;;;;;;;;18.53;59.72;97305.94;5054354;28;19974;-78
2021/09/02 07:52:39;;;;;;;;;;;;;;;18.66;59.12;97302.88;5055726;28;19977;-78
2021/09/02 07:55:06;;;;;;;;;;;;;;;18.64;58.59;97304.19;5055364;28;20338;-78
2021/09/02 07:57:32;;;;;;;;;;;;;;;18.70;58.92;97313.03;5055577;28;19997;-78
2021/09/02 07:59:58;;;;;;;;;;;;;;;18.78;59.21;97313.41;5055268;28;19965;-77
2021/09/02 08:02:24;;;;;;;;;;;;;;;18.86;58.95;97310.31;5055225;28;20001;-78
2021/09/02 08:04:49;;;;;;;;;;;;;;;18.95;58.81;97300.03;5055402;28;20013;-78
2021/09/02 08:07:15;;;;;;;;;;;;;;;18.99;57.98;97297.69;5055077;28;19977;-78
2021/09/02 08:09:41;;;;;;;;;;;;;;;19.10;59.60;97311.88;5054754;28;19982;-78
2021/09/02 08:12:07;;;;;;;;;;;;;;;19.22;58.54;97302.69;5054724;28;19982;-78
2021/09/02 08:14:33;;;;;;;;;;;;;;;19.32;58.60;97309.97;5055095;28;19970;-78
2021/09/02 08:16:59;;;;;;;;;;;;;;;19.37;57.48;97294.06;5054698;28;20015;-78
2021/09/02 08:19:25;;;;;;;;;;;;;;;19.43;58.62;97302.88;5054423;28;19973;-78
2021/09/02 08:21:51;;;;;;;;;;;;;;;19.48;58.47;97301.03;5054915;28;20104;-78
2021/09/02 08:24:18;;;;;;;;;;;;;;;19.63;59.46;97310.22;5054451;28;19981;-78
2021/09/02 08:26:44;;;;;;;;;;;;;;;19.74;58.47;97300.47;5054996;28;19980;-78
2021/09/02 08:29:10;;;;;;;;;;;;;;;19.79;58.74;97297.84;5054802;28;19989;-78
2021/09/02 08:31:36;;;;;;;;;;;;;;;19.82;57.99;97292.00;5054607;28;20007;-78
2021/09/02 08:34:02;;;;;;;;;;;;;;;19.79;59.01;97297.84;5054607;28;19973;-78
2021/09/02 08:36:27;;;;;;;;;;;;;;;19.81;58.03;97285.88;5054452;28;20027;-78
2021/09/02 08:38:53;;;;;;;;;;;;;;;19.80;58.10;97288.81;5054504;28;19973;-78
2021/09/02 08:41:19;;;;;;;;;;;;;;;19.76;58.32;97298.34;5054434;28;20020;-78
2021/09/02 08:43:46;;;;;;;;;;;;;;;19.74;59.04;97298.63;5054381;28;19974;-78
2021/09/02 08:46:13;;;;;;;;;;;;;;;19.76;58.26;97293.84;5053974;28;20338;-78
2021/09/02 08:48:43;;;;;;;;;;;;;;;19.82;56.71;97281.34;5054196;28;19993;-78
2021/09/02 08:51:08;;;;;;;;;;;;;;;19.84;54.77;97253.44;5053449;28;19977;-78
2021/09/02 08:53:34;;;;;;;;;;;;;;;19.87;57.20;97276.09;5054123;28;19983;-78
2021/09/02 08:56:01;;;;;;;;;;;;;;;19.86;55.67;97250.50;5054607;28;19969;-78
2021/09/02 08:58:27;;;;;;;;;;;;;;;19.73;54.82;97262.41;5053047;28;19969;-78
2021/09/02 09:00:52;;;;;;;;;;;;;;;19.61;54.11;97251.94;5053570;28;19976;-78
2021/09/02 09:03:19;;;;;;;;;;;;;;;19.59;53.50;97245.25;5054059;28;19973;-78
2021/09/02 09:05:52;;;;;;;;;;;;;;;19.50;57.26;97282.19;5053874;28;20408;-78
2021/09/02 09:08:17;;;;;;;;;;;;;;;19.56;58.74;97296.34;5054264;28;19992;-78
2021/09/02 09:10:43;;;;;;;;;;;;;;;19.67;59.17;97292.69;5052661;28;20051;-78
2021/09/02 09:13:10;;;;;;;;;;;;;;;19.75;56.39;97259.50;5053664;28;20008;-78
2021/09/02 09:15:37;;;;;;;;;;;;;;;19.64;54.62;97256.75;5052731;28;19969;-78
2021/09/02 09:18:20;;;;;;;;;;;;;;;19.57;55.96;97261.50;5053832;28;19976;-78
2021/09/02 09:21:04;;;;;;;;;;;;;;;19.41;57.20;97273.06;5053777;28;20334;-78
2021/09/02 09:23:50;;;;;;;;;;;;;;;19.22;51.28;97219.47;5046128;28;20374;-79
2021/09/02 09:26:16;;;;;;;;;;;;;;;19.15;56.32;97264.88;5053787;28;19973;-82
2021/09/02 09:28:42;;;;;;;;;;;;;;;19.08;54.62;97244.88;5052659;28;19977;-80
2021/09/02 09:31:43;;;;;;;;;;;;;;;19.05;52.93;97227.56;5053709;28;19980;-80
2021/09/02 09:34:10;;;;;;;;;;;;;;;19.01;52.97;97234.44;4991581;28;19974;-80
2021/09/02 09:36:37;;;;;;;;;;;;;;;19.00;53.55;97227.50;5036060;28;19973;-80
2021/09/02 09:39:06;;;;;;;;;;;;;;;19.02;55.96;97255.47;5053492;28;19981;-80
2021/09/02 09:41:32;;;;;;;;;;;;;;;19.10;53.86;97230.25;5053309;28;20006;-80
2021/09/02 09:44:13;;;;;;;;;;;;;;;19.15;53.93;97235.63;5053289;28;19976;-80
2021/09/02 09:46:39;;;;;;;;;;;;;;;19.30;55.12;97244.78;5053204;28;19965;-80
2021/09/02 09:49:05;;;;;;;;;;;;;;;19.38;53.08;97223.03;5053418;28;19985;-80
2021/09/02 09:51:31;;;;;;;;;;;;;;;19.38;53.90;97229.16;5053241;28;19973;-80
2021/09/02 09:53:57;;;;;;;;;;;;;;;19.41;55.72;97247.25;5054190;28;20008;-80
2021/09/02 09:56:24;;;;;;;;;;;;;;;19.47;54.77;97232.94;5057391;28;19977;-81
2021/09/02 09:58:54;;;;;;;;;;;;;;;19.52;54.68;97226.06;5057476;28;20426;-80
2021/09/02 10:01:20;;;;;;;;;;;;;;;19.48;54.56;97229.22;5057308;28;19965;-80
2021/09/02 10:03:52;;;;;;;;;;;;;;;19.49;53.27;97211.41;5056549;28;20088;-80
2021/09/02 10:06:20;;;;;;;;;;;;;;;19.45;54.54;97221.75;5057075;28;19973;-80
2021/09/02 10:08:46;;;;;;;;;;;;;;;19.50;55.24;97220.19;5057383;28;20461;-80
2021/09/02 10:11:13;;;;;;;;;;;;;;;19.45;52.36;97207.66;5056256;28;19976;-80
2021/09/02 10:13:39;;;;;;;;;;;;;;;19.55;55.19;97233.50;5057242;28;19976;-80
2021/09/02 10:16:06;;;;;;;;;;;;;;;19.62;54.70;97226.91;5057259;28;20442;-79
2021/09/02 10:18:34;;;;;;;;;;;;;;;19.61;54.28;97222.69;5056966;28;20419;-80
2021/09/02 10:21:01;;;;;;;;;;;;;;;19.67;53.42;97212.84;5056802;28;19977;-80
2021/09/02 10:23:27;;;;;;;;;;;;;;;19.76;53.72;97219.34;5056552;28;19997;-80
2021/09/02 10:25:53;;;;;;;;;;;;;;;19.81;52.52;97205.25;5056907;28;19977;-80
2021/09/02 10:28:22;;;;;;;;;;;;;;;19.91;53.66;97218.59;5056540;28;19973;-80
2021/09/02 10:30:49;;;;;;;;;;;;;;;19.94;52.20;97202.09;5056593;28;19965;-79
2021/09/02 10:33:34;;;;;;;;;;;;;;;20.02;52.83;97201.59;5056318;28;19972;-80
2021/09/02 10:36:03;;;;;;;;;;;;;;;20.05;51.90;97190.44;5056003;28;19973;-79
2021/09/02 10:38:39;;;;;;;;;;;;;;;19.99;48.16;97158.72;5056843;28;19972;-80
2021/09/02 10:41:05;;;;;;;;;;;;;;;20.15;50.19;97170.25;5056932;28;19961;-80
2021/09/02 10:43:43;;;;;;;;;;;;;;;20.35;52.60;97190.78;5056661;28;19965;-80
2021/09/02 10:46:22;;;;;;;;;;;;;;;20.51;51.36;97181.00;5057016;28;19969;-79
2021/09/02 10:48:48;;;;;;;;;;;;;;;20.69;48.50;97151.19;5056443;28;20462;-80
2021/09/02 10:51:37;;;;;;;;;;;;;;;20.79;48.63;97169.06;5056606;28;19973;-80
2021/09/02 10:54:04;;;;;;;;;;;;;;;20.83;48.55;97167.44;5056561;28;19981;-80
2021/09/02 10:56:30;;;;;;;;;;;;;;;20.81;49.09;97181.06;5056316;28;19992;-80
2021/09/02 10:58:56;;;;;;;;;;;;;;;20.80;48.15;97179.47;5056442;28;19969;-79
2021/09/02 11:01:22;;;;;;;;;;;;;;;20.88;47.67;97176.25;5056739;28;20452;-79
2021/09/02 11:03:49;;;;;;;;;;;;;;;21.03;50.58;97196.00;5056508;28;20023;-79
2021/09/02 11:06:15;;;;;;;;;;;;;;;21.18;49.10;97190.66;5056193;28;19977;-79
2021/09/02 11:08:41;;;;;;;;;;;;;;;21.34;49.89;97196.78;5055919;28;19985;-79
2021/09/02 11:11:20;;;;;;;;;;;;;;;21.40;46.62;97171.72;5056443;28;20060;-79
2021/09/02 11:13:50;;;;;;;;;;;;;;;21.52;47.00;97176.75;5054185;28;20445;-79
2021/09/02 11:16:17;;;;;;;;;;;;;;;21.39;46.67;97174.63;5056068;28;19994;-80
2021/09/02 11:18:43;;;;;;;;;;;;;;;21.48;48.45;97192.53;5056045;28;20635;-79
2021/09/02 11:21:10;;;;;;;;;;;;;;;21.62;48.76;97181.28;5055749;28;20083;-79
2021/09/02 11:23:40;;;;;;;;;;;;;;;21.72;47.31;97178.59;5056015;28;20465;-79
2021/09/02 11:26:06;;;;;;;;;;;;;;;21.79;48.39;97200.47;5056264;28;20358;-79
2021/09/02 11:28:45;;;;;;;;;;;;;;;21.96;47.15;97191.34;5054835;28;19972;-79
2021/09/02 11:31:11;;;;;;;;;;;;;;;22.12;46.79;97189.41;5055882;28;19969;-80
2021/09/02 11:33:50;;;;;;;;;;;;;;;22.28;48.63;97199.00;5055612;28;20419;-79
2021/09/02 11:36:17;;;;;;;;;;;;;;;22.39;46.92;97191.72;5055867;28;19969;-79
2021/09/02 11:38:43;;;;;;;;;;;;;;;22.46;44.90;97181.50;5055934;28;19969;-79
2021/09/02 11:41:18;;;;;;;;;;;;;;;22.43;45.10;97187.41;5056166;28;19973;-80
2021/09/02 11:43:44;;;;;;;;;;;;;;;22.49;45.37;97197.00;5055743;28;20434;-79
2021/09/02 11:46:10;;;;;;;;;;;;;;;22.55;45.44;97187.84;5055321;28;19969;-80
2021/09/02 11:48:52;;;;;;;;;;;;;;;22.47;43.83;97180.44;5054435;28;19977;-80
2021/09/02 11:51:22;;;;;;;;;;;;;;;22.51;45.33;97197.53;5055389;28;19974;-80
2021/09/02 11:54:01;;;;;;;;;;;;;;;22.45;45.40;97188.75;5055267;28;19980;-81
2021/09/02 11:56:28;;;;;;;;;;;;;;;22.45;45.64;97194.09;5054452;28;20441;-80
2021/09/02 11:58:58;;;;;;;;;;;;;;;22.41;46.51;97205.59;5055069;28;19980;-81
2021/09/02 12:01:24;;;;;;;;;;;;;;;22.59;46.30;97194.25;5055639;28;19970;-80
2021/09/02 12:03:50;;;;;;;;;;;;;;;22.81;47.34;97201.09;5055314;28;19965;-80
2021/09/02 12:06:21;;;;;;;;;;;;;;;22.96;46.60;97200.19;5055223;28;19973;-81
2021/09/02 12:08:47;;;;;;;;;;;;;;;23.06;44.66;97192.91;5040720;28;19981;-80
2021/09/02 12:11:15;;;;;;;;;;;;;;;23.09;43.94;97186.97;5054985;28;20059;-81
2021/09/02 12:13:41;;;;;;;;;;;;;;;23.23;44.50;97194.38;5054962;28;19965;-80
2021/09/02 12:16:17;;;;;;;;;;;;;;;23.24;44.70;97195.94;5054928;28;20389;-80
2021/09/02 12:18:44;;;;;;;;;;;;;;;23.43;44.34;97188.00;5054499;28;19964;-80
2021/09/02 12:21:18;;;;;;;;;;;;;;;23.41;42.67;97185.63;5054899;28;19973;-80
2021/09/02 12:23:48;;;;;;;;;;;;;;;23.42;42.77;97208.63;5054740;28;19993;-80
2021/09/02 12:26:15;;;;;;;;;;;;;;;23.59;43.02;97197.50;5054839;28;19974;-80
2021/09/02 12:28:43;;;;;;;;;;;;;;;23.66;41.26;97199.84;5054772;28;19973;-80
2021/09/02 12:31:16;;;;;;;;;;;;;;;23.67;40.70;97198.75;5054776;28;19976;-80
2021/09/02 12:33:54;;;;;;;;;;;;;;;23.61;39.83;97194.53;5054948;28;20331;-80
2021/09/02 12:36:22;;;;;;;;;;;;;;;23.65;40.98;97200.94;5054100;28;19969;-80
2021/09/02 12:38:48;;;;;;;;;;;;;;;23.82;42.48;97198.63;5054627;28;19972;-80
2021/09/02 12:41:15;;;;;;;;;;;;;;;23.84;40.43;97177.72;5053813;28;19984;-81
2021/09/02 12:43:59;;;;;;;;;;;;;;;23.74;40.85;97191.19;5046494;28;19977;-80
2021/09/02 12:46:25;;;;;;;;;;;;;;;23.58;41.25;97198.59;5054116;28;19969;-80